CheckWX is a tool to help pilots better visualize weather data.  It is not intended as a substitute for an official pre-flight weather briefing.

08:15:20 UTC

KTOC METAR
Toccoa Rg Letourneau Field Airport
Toccoa, Georgia, USA
Current

20 mins ago

KTOC 220755Z AUTO 03003KT 1 1/4SM BR OVC002 15/14 A3012 RMK AO2 T01450140
Observed
Feb-22 @ 07:55 UTC
Wind
  • 030° at 3 KTS
Visibility
1 1/4 SM
Flight Rules
LIFR
Conditions
Mist
Cloud Levels
  • Overcast at 200' AGL
Temperature
15°C / 59°F
Dewpoint
14°C / 57°F
Humidity
94%
Altimeter
30.12" Hg
Pressure
1020.02 hPa
Previous

40 mins ago

KTOC 220735Z AUTO 00000KT 1 3/4SM DZ OVC002 14/14 A3011 RMK AO2 T01440139
Observed
Feb-22 @ 07:35 UTC
Visibility
1 3/4 SM
Flight Rules
LIFR
Conditions
Drizzle
Cloud Levels
  • Overcast at 200' AGL
Temperature
14°C / 57°F
Dewpoint
14°C / 57°F
Humidity
100%
Altimeter
30.11" Hg
Pressure
1019.62 hPa
Previous

60 mins ago

KTOC 220715Z AUTO 00000KT 1 1/2SM BR BKN004 OVC007 14/14 A3012 RMK AO2 T01430138
Observed
Feb-22 @ 07:15 UTC
Visibility
1 1/2 SM
Flight Rules
LIFR
Conditions
Mist
Cloud Levels
  • Broken at 400' AGL
  • Overcast at 700' AGL
Temperature
14°C / 57°F
Dewpoint
14°C / 57°F
Humidity
100%
Altimeter
30.12" Hg
Pressure
1020.02 hPa